Time;durP1;ratioP1;P1;durP2;ratioP2;P2;SDS_P1;SDS_P2;PMS_P1;PMS_P2;Temp;Humidity;BMP_temperature;BMP_pressure;BME280_temperature;BME280_humidity;BME280_pressure;Samples;Min_cycle;Max_cycle;Signal;HPM_P1;HPM_P2
2023/07/15 00:00:22;;;;;;;17.93;16.63;;;21.80;99.90;;;;;;4991766;28;20487;-73
2023/07/15 00:02:50;;;;;;;15.50;14.77;;;21.70;99.90;;;;;;4999778;28;20437;-73
2023/07/15 00:05:20;;;;;;;16.10;15.27;;;21.60;99.90;;;;;;5030988;28;20484;-73
2023/07/15 00:07:48;;;;;;;16.03;15.20;;;21.60;99.90;;;;;;5030965;28;20997;-73
2023/07/15 00:10:15;;;;;;;16.07;15.27;;;21.50;99.90;;;;;;5031038;28;20487;-72
2023/07/15 00:12:41;;;;;;;16.13;15.23;;;21.50;99.90;;;;;;5030210;28;20453;-73
2023/07/15 00:15:12;;;;;;;16.17;15.27;;;21.50;99.90;;;;;;5024202;28;20465;-72
2023/07/15 00:17:39;;;;;;;16.63;15.80;;;21.50;99.90;;;;;;5010974;28;20504;-72
2023/07/15 00:20:08;;;;;;;16.80;15.80;;;21.40;99.90;;;;;;5011189;28;20450;-72
2023/07/15 00:22:35;;;;;;;16.00;15.30;;;21.40;99.90;;;;;;5011080;28;20446;-73
2023/07/15 00:25:05;;;;;;;16.50;15.60;;;21.30;99.90;;;;;;5011086;28;20512;-72
2023/07/15 00:27:32;;;;;;;16.97;16.00;;;21.20;99.90;;;;;;5010896;28;20452;-72
2023/07/15 00:29:59;;;;;;;16.87;16.07;;;21.30;99.90;;;;;;5011157;28;20460;-72
2023/07/15 00:32:27;;;;;;;17.80;16.80;;;21.20;99.90;;;;;;5011111;28;21073;-73
2023/07/15 00:34:54;;;;;;;17.23;16.33;;;21.20;99.90;;;;;;5010777;28;20453;-72
2023/07/15 00:37:21;;;;;;;17.17;16.17;;;21.20;99.90;;;;;;5011134;28;20446;-73
2023/07/15 00:39:47;;;;;;;16.60;15.80;;;21.20;99.90;;;;;;5010947;28;20486;-73
2023/07/15 00:42:18;;;;;;;16.30;15.50;;;21.20;99.90;;;;;;5010733;28;20445;-72
2023/07/15 00:44:44;;;;;;;16.53;15.73;;;21.20;99.90;;;;;;5010760;28;20488;-73
2023/07/15 00:47:23;;;;;;;18.30;17.17;;;21.20;99.90;;;;;;5010452;28;20448;-73
2023/07/15 00:49:51;;;;;;;17.40;16.20;;;21.10;99.90;;;;;;5007151;28;20450;-73
2023/07/15 00:52:21;;;;;;;16.63;15.83;;;21.00;99.90;;;;;;5010778;28;20512;-73
2023/07/15 00:54:50;;;;;;;17.70;16.90;;;21.00;99.90;;;;;;5010728;28;20658;-73
2023/07/15 00:57:18;;;;;;;17.67;16.80;;;21.00;99.90;;;;;;5010580;28;20474;-73
2023/07/15 00:59:47;;;;;;;17.43;16.53;;;21.00;99.90;;;;;;5010604;28;20476;-73
2023/07/15 01:02:16;;;;;;;16.70;15.90;;;20.90;99.90;;;;;;5010661;28;20456;-73
2023/07/15 01:04:43;;;;;;;17.30;16.40;;;20.90;99.90;;;;;;5010591;28;20486;-73
2023/07/15 01:07:10;;;;;;;17.13;16.20;;;20.90;99.90;;;;;;5010695;28;20453;-73
2023/07/15 01:09:37;;;;;;;16.90;16.00;;;20.90;99.90;;;;;;5010588;28;20453;-73
2023/07/15 01:12:04;;;;;;;16.60;15.77;;;20.90;99.90;;;;;;5010407;28;20442;-73
2023/07/15 01:14:31;;;;;;;17.03;16.10;;;20.80;99.90;;;;;;5010528;28;20940;-73
2023/07/15 01:16:58;;;;;;;18.43;17.40;;;20.80;99.90;;;;;;5010532;28;20954;-73
2023/07/15 01:19:27;;;;;;;18.03;17.10;;;20.80;99.90;;;;;;5010058;28;20453;-73
2023/07/15 01:21:54;;;;;;;18.10;16.80;;;20.70;99.90;;;;;;5010419;28;21060;-73
2023/07/15 01:24:25;;;;;;;16.67;15.87;;;20.70;99.90;;;;;;5011569;28;20837;-73
2023/07/15 01:27:02;;;;;;;17.47;16.50;;;20.70;99.90;;;;;;5014253;28;20464;-72
2023/07/15 01:29:29;;;;;;;17.63;16.73;;;20.70;99.90;;;;;;5014206;28;20971;-73
2023/07/15 01:31:56;;;;;;;19.30;18.00;;;20.70;99.90;;;;;;5014296;28;20449;-73
2023/07/15 01:34:23;;;;;;;18.87;17.77;;;20.60;99.90;;;;;;5014155;28;20450;-72
2023/07/15 01:36:49;;;;;;;18.67;17.53;;;20.60;99.90;;;;;;5014098;28;20839;-73
2023/07/15 01:39:16;;;;;;;18.13;17.13;;;20.70;99.90;;;;;;5013890;28;20461;-73
2023/07/15 01:41:45;;;;;;;19.23;18.17;;;20.70;99.90;;;;;;5013823;28;20454;-73
2023/07/15 01:44:12;;;;;;;18.03;17.13;;;20.70;99.90;;;;;;5014001;28;20481;-73
2023/07/15 01:46:39;;;;;;;20.23;18.93;;;20.70;99.90;;;;;;5013850;28;20504;-73
2023/07/15 01:49:07;;;;;;;18.70;17.80;;;20.70;99.90;;;;;;5013903;28;20814;-74
2023/07/15 01:51:34;;;;;;;16.90;15.90;;;20.70;99.90;;;;;;5013680;28;20450;-75
2023/07/15 01:54:01;;;;;;;17.03;16.03;;;20.70;99.90;;;;;;5013689;28;20453;-73
2023/07/15 01:56:28;;;;;;;17.60;16.50;;;20.70;99.90;;;;;;5013461;28;20474;-72
2023/07/15 01:58:56;;;;;;;18.00;17.00;;;20.80;99.90;;;;;;5013667;28;20446;-73
2023/07/15 02:01:23;;;;;;;17.53;16.63;;;20.70;99.90;;;;;;5012027;28;20466;-73
2023/07/15 02:03:50;;;;;;;18.57;17.43;;;20.80;99.90;;;;;;5011710;28;20508;-72
2023/07/15 02:06:17;;;;;;;17.33;16.43;;;20.80;99.90;;;;;;5013192;28;20456;-72
2023/07/15 02:08:44;;;;;;;16.43;15.63;;;20.70;99.90;;;;;;5011037;28;20466;-73
2023/07/15 02:11:11;;;;;;;16.83;15.90;;;20.70;99.90;;;;;;5009839;28;20456;-73
2023/07/15 02:13:38;;;;;;;17.63;16.57;;;20.70;99.90;;;;;;5010113;28;20461;-73
2023/07/15 02:16:06;;;;;;;18.07;17.07;;;20.80;99.90;;;;;;5009516;28;20461;-73
2023/07/15 02:18:33;;;;;;;19.90;18.60;;;20.80;99.90;;;;;;5009948;28;20917;-75
2023/07/15 02:20:59;;;;;;;20.27;19.10;;;20.80;99.90;;;;;;5012192;28;20465;-73
2023/07/15 02:23:27;;;;;;;20.13;18.93;;;20.70;99.90;;;;;;5012687;28;20458;-73
2023/07/15 02:25:53;;;;;;;19.80;18.53;;;20.60;99.90;;;;;;5012153;28;20499;-73
2023/07/15 02:28:22;;;;;;;21.30;19.80;;;20.60;99.90;;;;;;5012513;28;20461;-73
2023/07/15 02:30:49;;;;;;;20.50;19.20;;;20.50;99.90;;;;;;5012602;28;20462;-73
2023/07/15 02:33:17;;;;;;;19.00;18.00;;;20.50;99.90;;;;;;5013008;28;20445;-73
2023/07/15 02:35:44;;;;;;;19.80;18.87;;;20.50;99.90;;;;;;5012115;28;20827;-73
2023/07/15 02:38:10;;;;;;;17.80;16.50;;;20.60;99.90;;;;;;5013052;28;20446;-72
2023/07/15 02:40:37;;;;;;;17.87;16.97;;;20.70;99.90;;;;;;5012591;28;20457;-72
2023/07/15 02:43:04;;;;;;;18.77;17.87;;;20.70;99.90;;;;;;5012780;28;20442;-72
2023/07/15 02:45:31;;;;;;;19.00;18.10;;;20.70;99.90;;;;;;5012648;28;20485;-73
2023/07/15 02:47:57;;;;;;;18.50;17.50;;;20.60;99.90;;;;;;5012826;28;20996;-72
2023/07/15 02:50:26;;;;;;;18.20;17.07;;;20.50;99.90;;;;;;5012737;28;20450;-73
2023/07/15 02:52:53;;;;;;;18.90;17.90;;;20.40;99.90;;;;;;5012568;28;20937;-72
2023/07/15 02:55:20;;;;;;;18.47;17.47;;;20.30;99.90;;;;;;5012547;28;20631;-73
2023/07/15 02:57:47;;;;;;;18.53;17.13;;;20.30;99.90;;;;;;5012373;28;20489;-72
2023/07/15 03:00:15;;;;;;;17.73;16.63;;;20.20;99.90;;;;;;5012612;28;20453;-72
2023/07/15 03:02:44;;;;;;;18.90;17.90;;;20.20;99.90;;;;;;5012361;28;21001;-72
2023/07/15 03:05:11;;;;;;;17.57;16.60;;;20.10;99.90;;;;;;5012536;28;20493;-72
2023/07/15 03:07:43;;;;;;;18.73;17.70;;;20.10;99.90;;;;;;5012456;28;20450;-72
2023/07/15 03:10:11;;;;;;;17.57;16.50;;;20.10;99.90;;;;;;5012444;28;20458;-71
2023/07/15 03:12:38;;;;;;;17.47;16.53;;;20.10;99.90;;;;;;5012370;28;20454;-73
2023/07/15 03:15:05;;;;;;;17.57;16.67;;;20.10;99.90;;;;;;5012159;28;20442;-73
2023/07/15 03:17:35;;;;;;;19.50;18.50;;;20.00;99.90;;;;;;5012148;28;20450;-72
2023/07/15 03:20:04;;;;;;;18.37;17.27;;;20.00;99.90;;;;;;5012166;28;20556;-72
2023/07/15 03:22:31;;;;;;;17.33;16.57;;;19.90;99.90;;;;;;5012165;28;20460;-72
2023/07/15 03:24:59;;;;;;;17.50;16.50;;;19.90;99.90;;;;;;5011850;28;20490;-72
2023/07/15 03:27:26;;;;;;;17.90;17.10;;;19.80;99.90;;;;;;5012136;28;20461;-72
2023/07/15 03:29:54;;;;;;;17.93;17.00;;;19.80;99.90;;;;;;5011826;28;20465;-73
2023/07/15 03:32:22;;;;;;;17.13;16.17;;;19.80;99.90;;;;;;5011963;28;20449;-73
2023/07/15 03:34:49;;;;;;;17.60;16.40;;;19.80;99.90;;;;;;5011899;28;20503;-73
2023/07/15 03:37:16;;;;;;;18.00;17.00;;;19.80;99.90;;;;;;5011871;28;20450;-73
2023/07/15 03:39:43;;;;;;;18.83;17.87;;;19.80;99.90;;;;;;5011805;28;20465;-72
2023/07/15 03:42:12;;;;;;;19.20;18.10;;;19.80;99.90;;;;;;5011883;28;20553;-72
2023/07/15 03:44:38;;;;;;;19.10;18.20;;;19.80;99.90;;;;;;5011694;28;20995;-72
2023/07/15 03:47:05;;;;;;;17.90;17.10;;;19.70;99.90;;;;;;5011555;28;20450;-72
2023/07/15 03:49:32;;;;;;;18.27;17.30;;;19.70;99.90;;;;;;5011622;28;20457;-73
2023/07/15 03:51:59;;;;;;;17.97;17.17;;;19.60;99.90;;;;;;5011602;28;20453;-72
2023/07/15 03:54:25;;;;;;;17.83;16.90;;;19.60;99.90;;;;;;5011659;28;20959;-72
2023/07/15 03:56:52;;;;;;;17.70;16.63;;;19.60;99.90;;;;;;5011234;28;20492;-72
2023/07/15 03:59:20;;;;;;;17.90;16.90;;;19.70;99.90;;;;;;5011543;28;20456;-73
2023/07/15 04:01:47;;;;;;;17.63;16.47;;;19.70;99.90;;;;;;5011387;28;20456;-72
2023/07/15 04:04:14;;;;;;;17.83;16.80;;;19.80;99.90;;;;;;5011345;28;20460;-73
2023/07/15 04:06:41;;;;;;;17.57;16.77;;;19.70;99.90;;;;;;5011321;28;20492;-73
2023/07/15 04:09:11;;;;;;;19.20;18.20;;;19.80;99.90;;;;;;5011282;28;20546;-73
2023/07/15 04:11:39;;;;;;;19.10;18.17;;;19.80;99.90;;;;;;5011275;28;20541;-72
2023/07/15 04:14:06;;;;;;;17.73;16.73;;;19.80;99.90;;;;;;5011143;28;20561;-72
2023/07/15 04:16:35;;;;;;;17.87;17.07;;;19.90;99.90;;;;;;5011308;28;20810;-72
2023/07/15 04:19:01;;;;;;;16.50;15.80;;;19.90;99.90;;;;;;5011210;28;20450;-72
2023/07/15 04:21:28;;;;;;;17.97;16.97;;;19.90;99.90;;;;;;5011159;28;20823;-72
2023/07/15 04:23:55;;;;;;;17.03;16.23;;;19.90;99.90;;;;;;5011214;28;20458;-72
2023/07/15 04:26:23;;;;;;;18.33;17.37;;;19.80;99.90;;;;;;5010982;28;20485;-72
2023/07/15 04:28:50;;;;;;;17.60;16.80;;;19.80;99.90;;;;;;5011146;28;20956;-72
2023/07/15 04:31:17;;;;;;;17.37;16.23;;;19.80;99.90;;;;;;5011127;28;20549;-73
2023/07/15 04:33:45;;;;;;;17.53;16.50;;;19.90;99.90;;;;;;5010992;28;20460;-72
2023/07/15 04:36:12;;;;;;;17.27;16.27;;;20.00;99.90;;;;;;5010906;28;20809;-72
2023/07/15 04:38:39;;;;;;;17.50;16.60;;;20.30;99.90;;;;;;5010885;28;20461;-72
2023/07/15 04:41:06;;;;;;;17.90;17.10;;;20.80;99.90;;;;;;5010849;28;20461;-72
2023/07/15 04:43:32;;;;;;;17.90;17.00;;;21.40;99.90;;;;;;5010852;28;20457;-72
2023/07/15 04:46:00;;;;;;;17.20;16.03;;;21.70;99.90;;;;;;5010865;28;20489;-73
2023/07/15 04:48:27;;;;;;;16.40;15.70;;;22.00;99.90;;;;;;5010925;28;20464;-73
2023/07/15 04:50:56;;;;;;;15.20;14.50;;;22.10;99.90;;;;;;5024251;28;20456;-72
2023/07/15 04:53:22;;;;;;;16.07;15.27;;;22.20;99.90;;;;;;5030730;28;20449;-73
2023/07/15 04:55:49;;;;;;;16.17;15.37;;;22.30;99.90;;;;;;5030432;28;20456;-72
2023/07/15 04:58:18;;;;;;;17.20;16.20;;;22.40;99.90;;;;;;5030324;28;20480;-73
2023/07/15 05:00:45;;;;;;;15.40;14.60;;;22.60;99.90;;;;;;5033925;28;20555;-72
2023/07/15 05:03:12;;;;;;;15.90;15.10;;;22.80;99.90;;;;;;5034516;28;20459;-73
2023/07/15 05:05:39;;;;;;;15.93;15.13;;;23.10;99.90;;;;;;5034423;28;20488;-73
2023/07/15 05:08:12;;;;;;;16.40;15.70;;;23.40;99.90;;;;;;5034508;28;21154;-72
2023/07/15 05:10:38;;;;;;;15.03;14.00;;;23.60;99.90;;;;;;5034350;28;20456;-73
2023/07/15 05:13:07;;;;;;;16.43;15.67;;;23.70;99.90;;;;;;5034190;28;20445;-74
2023/07/15 05:15:34;;;;;;;15.73;14.93;;;23.80;99.90;;;;;;5034194;28;20864;-73
2023/07/15 05:18:01;;;;;;;16.10;15.37;;;23.80;99.90;;;;;;5034141;28;20649;-73
2023/07/15 05:20:28;;;;;;;15.53;14.63;;;23.90;99.90;;;;;;5034230;28;20456;-74
2023/07/15 05:22:54;;;;;;;15.37;14.10;;;24.10;99.90;;;;;;5034094;28;20503;-73
2023/07/15 05:25:23;;;;;;;14.43;13.73;;;24.10;99.90;;;;;;5033888;28;20594;-73
2023/07/15 05:27:50;;;;;;;15.87;15.00;;;24.20;99.90;;;;;;5030278;28;20472;-73
2023/07/15 05:30:17;;;;;;;15.23;14.63;;;24.70;99.90;;;;;;5012925;28;20449;-74
2023/07/15 05:32:43;;;;;;;15.30;14.50;;;24.90;99.90;;;;;;5013541;28;20465;-75
2023/07/15 05:35:10;;;;;;;15.33;14.53;;;25.00;99.90;;;;;;5013345;28;20469;-77
2023/07/15 05:37:37;;;;;;;15.20;14.50;;;24.90;99.90;;;;;;5013919;28;20948;-80
2023/07/15 05:40:09;;;;;;;17.30;16.10;;;24.70;99.90;;;;;;5013932;28;20507;-78
2023/07/15 05:42:37;;;;;;;15.00;14.20;;;24.90;99.90;;;;;;5008072;28;20892;-77
2023/07/15 05:45:05;;;;;;;14.93;14.23;;;25.00;99.90;;;;;;4998329;28;20447;-78
2023/07/15 05:47:34;;;;;;;15.63;14.93;;;25.10;99.90;;;;;;5012393;28;20821;-78
2023/07/15 05:50:00;;;;;;;17.87;16.70;;;25.30;99.40;;;;;;5018337;28;20450;-78
2023/07/15 05:52:27;;;;;;;15.07;14.27;;;25.60;98.60;;;;;;5013876;28;20826;-77
2023/07/15 05:54:54;;;;;;;15.50;14.50;;;25.70;98.20;;;;;;5013764;28;20454;-78
2023/07/15 05:57:20;;;;;;;14.30;13.47;;;25.70;97.90;;;;;;5013850;28;20891;-78
2023/07/15 05:59:48;;;;;;;14.80;14.00;;;25.90;97.40;;;;;;4999749;28;20446;-78
2023/07/15 06:02:15;;;;;;;14.30;13.70;;;26.20;96.60;;;;;;4988749;28;20462;-78
2023/07/15 06:04:42;;;;;;;15.40;14.70;;;26.50;95.00;;;;;;5013439;28;20454;-78
2023/07/15 06:07:09;;;;;;;16.30;15.40;;;26.80;94.50;;;;;;5013182;28;20496;-78
2023/07/15 06:09:35;;;;;;;14.33;13.40;;;27.00;93.40;;;;;;5013407;28;20461;-78
2023/07/15 06:12:02;;;;;;;14.77;14.00;;;27.10;92.90;;;;;;5012020;28;20446;-79
2023/07/15 06:14:29;;;;;;;14.47;13.87;;;27.30;92.20;;;;;;5012983;28;20994;-78
2023/07/15 06:16:57;;;;;;;15.77;14.87;;;27.50;91.60;;;;;;4998571;28;20443;-79
2023/07/15 06:19:24;;;;;;;14.03;13.33;;;27.60;91.20;;;;;;4993597;28;20451;-79
2023/07/15 06:21:51;;;;;;;14.07;13.50;;;27.90;90.80;;;;;;4993679;28;20486;-79
2023/07/15 06:24:18;;;;;;;14.30;13.50;;;28.10;90.20;;;;;;4993123;28;20513;-80
2023/07/15 06:26:45;;;;;;;14.10;13.60;;;28.20;89.40;;;;;;5027116;28;20477;-78
2023/07/15 06:29:11;;;;;;;15.60;14.90;;;28.50;88.50;;;;;;5032857;28;20785;-79
2023/07/15 06:31:38;;;;;;;15.07;14.27;;;28.60;87.40;;;;;;5032810;28;20464;-78
2023/07/15 06:34:06;;;;;;;15.90;15.20;;;28.70;86.50;;;;;;5032858;28;20796;-79
2023/07/15 06:36:33;;;;;;;14.27;13.57;;;28.70;86.50;;;;;;5032632;28;20468;-79
2023/07/15 06:39:00;;;;;;;14.47;13.87;;;28.80;85.20;;;;;;5032604;28;20460;-80
2023/07/15 06:41:26;;;;;;;15.07;14.47;;;29.00;84.50;;;;;;5032567;28;20841;-80
2023/07/15 06:43:53;;;;;;;15.07;14.07;;;29.10;84.70;;;;;;5028265;28;20462;-83
2023/07/15 06:46:20;;;;;;;14.67;13.97;;;29.20;84.20;;;;;;5012743;28;20525;-78
2023/07/15 06:48:48;;;;;;;15.33;14.63;;;29.20;84.10;;;;;;5012850;28;20450;-78
2023/07/15 06:51:16;;;;;;;14.13;13.63;;;29.70;82.10;;;;;;5012520;28;20971;-78
2023/07/15 06:53:42;;;;;;;14.23;13.47;;;30.10;81.30;;;;;;5012569;28;20464;-81
2023/07/15 06:56:09;;;;;;;14.53;13.80;;;30.10;80.30;;;;;;5010616;28;20446;-81
2023/07/15 06:58:36;;;;;;;13.50;12.90;;;29.90;80.50;;;;;;5012790;28;20541;-80
2023/07/15 07:01:03;;;;;;;14.43;13.73;;;30.20;79.70;;;;;;5012516;28;20449;-80
2023/07/15 07:03:29;;;;;;;14.93;14.17;;;30.50;78.60;;;;;;5012469;28;20465;-79
2023/07/15 07:05:56;;;;;;;14.80;14.20;;;30.70;77.20;;;;;;5012610;28;20481;-80
2023/07/15 07:08:24;;;;;;;13.63;13.03;;;30.90;77.00;;;;;;5012494;28;21051;-79
2023/07/15 07:10:51;;;;;;;13.93;13.30;;;30.90;76.00;;;;;;5012457;28;20441;-79
2023/07/15 07:13:18;;;;;;;14.60;14.00;;;31.10;75.80;;;;;;5012366;28;20827;-79
2023/07/15 07:15:45;;;;;;;14.70;14.10;;;31.50;75.00;;;;;;5012356;28;20471;-79
2023/07/15 07:18:12;;;;;;;14.37;13.77;;;31.70;74.80;;;;;;5012340;28;20456;-80
2023/07/15 07:20:39;;;;;;;15.60;14.93;;;32.30;72.80;;;;;;5012217;28;20496;-81
2023/07/15 07:23:05;;;;;;;15.20;14.33;;;32.30;72.30;;;;;;5012015;28;20461;-80
2023/07/15 07:25:34;;;;;;;13.87;13.17;;;32.30;71.90;;;;;;5011881;28;20960;-81
2023/07/15 07:28:00;;;;;;;14.70;14.10;;;32.20;72.90;;;;;;5012149;28;20461;-82
2023/07/15 07:30:28;;;;;;;16.57;15.87;;;32.40;72.10;;;;;;5012214;28;20453;-80
2023/07/15 07:32:54;;;;;;;15.20;14.27;;;32.70;71.50;;;;;;5012035;28;20818;-80
2023/07/15 07:35:21;;;;;;;14.60;13.90;;;32.70;70.90;;;;;;5012016;28;20481;-84
2023/07/15 07:37:49;;;;;;;14.60;13.90;;;32.80;70.80;;;;;;5011879;28;20450;-84
2023/07/15 07:40:16;;;;;;;15.80;15.00;;;33.50;69.70;;;;;;5011614;28;20466;-83
2023/07/15 07:42:44;;;;;;;15.50;14.80;;;34.20;66.60;;;;;;5010124;28;20461;-83
2023/07/15 07:45:14;;;;;;;15.97;14.90;;;34.70;65.20;;;;;;5011361;28;20465;-84
2023/07/15 07:47:41;;;;;;;14.27;13.67;;;34.80;63.90;;;;;;5011618;28;20496;-83
2023/07/15 07:50:08;;;;;;;14.73;14.03;;;34.70;63.70;;;;;;5011662;28;20461;-83
2023/07/15 07:52:35;;;;;;;14.53;13.93;;;34.60;63.20;;;;;;5011638;28;20450;-83
2023/07/15 07:55:03;;;;;;;15.20;14.50;;;34.50;63.60;;;;;;5011541;28;20485;-83
2023/07/15 07:57:30;;;;;;;15.37;14.67;;;34.90;62.50;;;;;;5011347;28;20564;-84
2023/07/15 07:59:59;;;;;;;15.67;15.07;;;34.70;62.60;;;;;;5011604;28;20472;-84
2023/07/15 08:02:25;;;;;;;16.27;15.67;;;34.80;62.40;;;;;;5011579;28;20512;-83
2023/07/15 08:04:52;;;;;;;14.60;14.10;;;35.60;60.60;;;;;;5011366;28;20458;-84
2023/07/15 08:07:19;;;;;;;15.30;14.60;;;35.90;59.80;;;;;;5011343;28;20486;-83
2023/07/15 08:09:45;;;;;;;13.80;13.20;;;36.20;59.30;;;;;;5011411;28;20998;-82
2023/07/15 08:12:12;;;;;;;15.00;14.40;;;36.40;58.50;;;;;;5011412;28;20457;-83
2023/07/15 08:14:39;;;;;;;16.17;15.50;;;36.60;57.10;;;;;;5011295;28;20462;-83
2023/07/15 08:17:07;;;;;;;15.00;14.40;;;36.50;56.70;;;;;;5011276;28;20441;-84
2023/07/15 08:19:34;;;;;;;13.33;12.83;;;36.40;56.10;;;;;;5011286;28;20449;-84
2023/07/15 08:22:00;;;;;;;15.90;15.30;;;36.70;54.60;;;;;;5011239;28;20460;-84
2023/07/15 08:24:27;;;;;;;15.30;14.70;;;36.60;54.50;;;;;;5011224;28;20765;-83
2023/07/15 08:26:54;;;;;;;15.93;15.23;;;36.40;53.70;;;;;;5011060;28;20496;-85
2023/07/15 08:29:20;;;;;;;15.33;14.63;;;35.90;54.50;;;;;;5011076;28;20944;-85
2023/07/15 08:31:47;;;;;;;13.43;12.93;;;35.50;55.40;;;;;;5011111;28;20449;-84
2023/07/15 08:34:15;;;;;;;14.93;14.17;;;35.30;54.80;;;;;;5010383;28;20481;-85
2023/07/15 08:36:42;;;;;;;15.97;15.20;;;34.90;54.80;;;;;;5011007;28;21006;-85
2023/07/15 08:39:08;;;;;;;15.00;14.43;;;35.00;55.50;;;;;;5010843;28;20450;-85
2023/07/15 08:41:37;;;;;;;15.20;14.50;;;35.20;56.10;;;;;;5011027;28;20834;-85
2023/07/15 08:44:05;;;;;;;14.90;13.77;;;35.60;55.90;;;;;;5010844;28;20462;-85
2023/07/15 08:46:31;;;;;;;14.63;14.03;;;35.90;54.00;;;;;;5010784;28;21250;-84
2023/07/15 08:49:00;;;;;;;14.83;14.33;;;36.30;51.60;;;;;;5010980;28;20899;-85
2023/07/15 08:51:32;;;;;;;14.80;14.13;;;36.60;51.00;;;;;;5010828;28;20484;-85
2023/07/15 08:54:01;;;;;;;15.57;14.97;;;36.80;50.20;;;;;;5010831;28;20821;-85
2023/07/15 08:56:29;;;;;;;15.27;14.57;;;37.10;49.70;;;;;;5010816;28;20482;-87
2023/07/15 08:58:57;;;;;;;14.23;13.73;;;37.20;49.90;;;;;;5010715;28;20449;-86
2023/07/15 09:01:24;;;;;;;15.17;14.53;;;37.60;49.00;;;;;;5010885;28;20873;-85
2023/07/15 09:03:51;;;;;;;14.53;13.93;;;38.10;48.20;;;;;;5010711;28;20457;-85
2023/07/15 09:06:18;;;;;;;15.77;15.03;;;38.80;46.60;;;;;;5010760;28;20450;-86
2023/07/15 09:08:51;;;;;;;15.63;15.07;;;38.60;46.10;;;;;;5010910;28;20464;-86
2023/07/15 09:11:18;;;;;;;14.20;13.70;;;38.40;46.50;;;;;;5012040;28;20504;-83
2023/07/15 09:13:44;;;;;;;14.30;13.80;;;37.90;45.40;;;;;;5012607;28;20449;-83
2023/07/15 09:16:11;;;;;;;13.53;13.07;;;36.90;46.70;;;;;;5011435;28;20465;-85
2023/07/15 09:18:39;;;;;;;14.27;13.60;;;36.60;47.10;;;;;;5010887;28;20463;-85
2023/07/15 09:21:11;;;;;;;13.80;13.20;;;37.00;46.90;;;;;;5011066;28;20438;-84
2023/07/15 09:23:42;;;;;;;15.23;14.63;;;37.40;46.20;;;;;;5010820;28;20811;-85
2023/07/15 09:26:11;;;;;;;16.80;16.20;;;37.20;45.60;;;;;;5011024;28;20454;-83
2023/07/15 09:28:38;;;;;;;15.83;15.17;;;36.70;46.80;;;;;;5010823;28;20451;-83
2023/07/15 09:31:05;;;;;;;15.70;15.10;;;37.50;46.30;;;;;;5010749;28;20450;-83
2023/07/15 09:33:35;;;;;;;15.10;14.60;;;38.80;44.40;;;;;;5010893;28;20998;-85
2023/07/15 09:36:02;;;;;;;15.23;14.73;;;39.30;42.70;;;;;;5010882;28;20480;-83
2023/07/15 09:38:33;;;;;;;16.73;15.73;;;39.00;42.40;;;;;;5010572;28;20782;-83
2023/07/15 09:41:00;;;;;;;16.93;16.33;;;39.00;42.10;;;;;;5010547;28;20476;-83
2023/07/15 09:43:46;;;;;;;15.40;14.70;;;39.60;40.60;;;;;;5010868;28;20493;-84
2023/07/15 09:46:15;;;;;;;14.87;14.27;;;39.10;40.70;;;;;;5013116;28;20523;-82
2023/07/15 09:48:42;;;;;;;16.60;16.00;;;39.00;40.60;;;;;;5014210;28;20457;-84
2023/07/15 09:51:12;;;;;;;14.40;13.80;;;39.40;40.30;;;;;;5014538;28;20461;-83
2023/07/15 09:53:42;;;;;;;15.97;15.20;;;40.50;39.20;;;;;;5014140;28;20453;-84
2023/07/15 09:56:10;;;;;;;16.57;15.97;;;41.00;38.50;;;;;;5013814;28;20462;-83
2023/07/15 09:58:40;;;;;;;16.73;16.13;;;42.00;37.60;;;;;;5014238;28;20525;-84
2023/07/15 10:01:14;;;;;;;17.87;17.17;;;42.20;37.00;;;;;;5013885;28;20449;-84
2023/07/15 10:03:43;;;;;;;16.60;15.90;;;41.80;36.50;;;;;;5014139;28;20457;-83
2023/07/15 10:06:11;;;;;;;17.80;17.00;;;42.00;36.30;;;;;;5013776;28;20508;-82
2023/07/15 10:08:38;;;;;;;16.43;15.73;;;42.20;36.10;;;;;;5013539;28;20489;-83
2023/07/15 10:11:09;;;;;;;17.37;16.77;;;41.80;36.30;;;;;;5014307;28;20453;-83
2023/07/15 10:13:36;;;;;;;17.63;16.83;;;42.40;35.60;;;;;;5015886;28;20453;-83
2023/07/15 10:16:04;;;;;;;16.77;16.17;;;42.30;35.40;;;;;;5018125;28;20962;-84
2023/07/15 10:18:32;;;;;;;16.50;15.90;;;40.80;37.00;;;;;;5023437;28;20421;-84
2023/07/15 10:21:02;;;;;;;16.23;15.53;;;41.10;37.00;;;;;;5039138;28;20448;-83
2023/07/15 10:23:30;;;;;;;18.30;17.60;;;41.80;35.50;;;;;;5039258;28;20433;-83
2023/07/15 10:26:04;;;;;;;17.17;16.47;;;42.70;35.00;;;;;;5038973;28;20451;-84
2023/07/15 10:28:33;;;;;;;17.10;16.50;;;43.80;33.80;;;;;;5038849;28;20253;-86
2023/07/15 10:31:08;;;;;;;16.00;15.40;;;43.70;33.00;;;;;;5022933;28;20311;-84
2023/07/15 10:33:37;;;;;;;18.10;17.47;;;43.80;32.70;;;;;;5016852;28;20201;-84
2023/07/15 10:36:05;;;;;;;17.40;16.70;;;43.70;33.20;;;;;;5014813;28;20476;-84
2023/07/15 10:38:33;;;;;;;17.27;16.27;;;43.50;32.50;;;;;;5013569;28;20665;-83
2023/07/15 10:41:02;;;;;;;15.80;15.30;;;43.50;32.70;;;;;;5013352;28;20453;-84
2023/07/15 10:43:44;;;;;;;17.70;17.10;;;43.70;32.50;;;;;;5013158;28;20456;-85
2023/07/15 10:46:12;;;;;;;19.80;19.10;;;43.60;31.80;;;;;;5009567;28;20210;-84
2023/07/15 10:48:41;;;;;;;18.13;17.53;;;42.90;32.70;;;;;;5013060;28;20504;-85
2023/07/15 10:51:08;;;;;;;16.60;15.90;;;41.60;34.00;;;;;;5013135;28;20460;-84
2023/07/15 10:53:36;;;;;;;16.67;16.07;;;41.30;34.80;;;;;;5012942;28;20999;-84
2023/07/15 10:56:04;;;;;;;15.83;15.33;;;40.30;34.90;;;;;;5013190;28;20829;-84
2023/07/15 10:58:33;;;;;;;16.97;16.37;;;39.50;36.90;;;;;;5012253;28;20737;-85
2023/07/15 11:01:01;;;;;;;15.57;15.07;;;39.20;36.30;;;;;;5012544;28;20974;-84
2023/07/15 11:03:29;;;;;;;15.50;14.90;;;39.40;36.40;;;;;;5012963;28;20791;-83
2023/07/15 11:05:59;;;;;;;17.40;16.80;;;40.70;35.40;;;;;;5013150;28;20960;-84
2023/07/15 11:08:26;;;;;;;17.47;16.77;;;42.70;33.50;;;;;;5012575;28;20485;-83
2023/07/15 11:11:00;;;;;;;15.90;15.40;;;43.70;31.80;;;;;;5012815;28;20457;-85
2023/07/15 11:13:27;;;;;;;17.20;16.60;;;43.90;32.00;;;;;;5012682;28;20548;-84
2023/07/15 11:15:54;;;;;;;18.67;17.97;;;44.20;31.10;;;;;;5013826;28;20206;-84
2023/07/15 11:18:23;;;;;;;17.80;17.20;;;42.90;32.10;;;;;;5012675;28;20446;-84
2023/07/15 11:20:52;;;;;;;18.20;17.50;;;42.60;32.90;;;;;;5012443;28;20461;-84
2023/07/15 11:23:21;;;;;;;16.37;15.73;;;42.20;32.80;;;;;;5012400;28;20445;-83
2023/07/15 11:25:48;;;;;;;17.13;16.43;;;42.80;32.80;;;;;;5012775;28;20464;-83
2023/07/15 11:28:15;;;;;;;17.33;16.70;;;43.20;32.20;;;;;;5012673;28;20485;-85
2023/07/15 11:30:45;;;;;;;17.67;17.00;;;44.10;31.30;;;;;;5012442;28;20213;-83
2023/07/15 11:33:12;;;;;;;17.90;17.00;;;44.20;31.40;;;;;;5012601;28;20198;-84
2023/07/15 11:35:41;;;;;;;18.03;17.33;;;43.40;31.50;;;;;;5012249;28;20231;-83
2023/07/15 11:38:11;;;;;;;17.23;16.63;;;42.30;32.10;;;;;;5012351;28;20456;-83
2023/07/15 11:40:51;;;;;;;17.60;16.90;;;42.00;32.40;;;;;;5009955;28;20453;-83
2023/07/15 11:43:18;;;;;;;16.23;15.53;;;41.20;33.80;;;;;;5011211;28;20868;-84
2023/07/15 11:45:45;;;;;;;18.33;17.63;;;41.80;33.40;;;;;;5012386;28;20456;-85
2023/07/15 11:48:12;;;;;;;18.90;18.20;;;42.90;32.20;;;;;;5012247;28;20481;-85
2023/07/15 11:50:39;;;;;;;19.35;18.58;;;44.70;30.20;;;;;;5012670;28;20203;-85
2023/07/15 11:53:06;;;;;;;19.60;19.00;;;46.00;29.40;;;;;;5012432;28;20578;-85
2023/07/15 11:55:32;;;;;;;19.65;19.05;;;47.40;27.60;;;;;;5012894;28;20538;-86
2023/07/15 11:58:00;;;;;;;17.30;16.60;;;47.50;27.20;;;;;;5014639;28;20230;-87
2023/07/15 12:00:29;;;;;;;18.20;17.60;;;45.70;28.10;;;;;;5006749;28;20217;-85
2023/07/15 12:02:56;;;;;;;17.52;16.83;;;44.50;29.10;;;;;;5008003;28;20229;-85
2023/07/15 12:05:23;;;;;;;18.88;18.05;;;44.50;29.10;;;;;;5005543;28;20207;-85
2023/07/15 12:07:51;;;;;;;20.02;19.00;;;45.70;28.40;;;;;;5009111;28;20225;-85
2023/07/15 12:10:18;;;;;;;19.90;19.10;;;45.60;30.00;;;;;;5015547;28;20206;-84
2023/07/15 12:12:46;;;;;;;17.70;17.10;;;44.30;30.90;;;;;;5007458;28;20198;-85
2023/07/15 12:15:29;;;;;;;18.30;17.60;;;43.30;32.00;;;;;;5025789;28;20209;-85
2023/07/15 12:17:56;;;;;;;17.50;16.80;;;41.80;33.70;;;;;;5004600;28;20513;-85
2023/07/15 12:20:23;;;;;;;16.67;15.97;;;42.20;33.60;;;;;;5004612;28;20996;-84
2023/07/15 12:22:50;;;;;;;18.20;17.50;;;42.20;32.90;;;;;;5007242;28;20457;-85
2023/07/15 12:25:21;;;;;;;17.33;16.53;;;41.60;33.60;;;;;;5014338;28;20453;-85
2023/07/15 12:27:49;;;;;;;18.03;17.13;;;40.80;34.70;;;;;;5011086;28;20485;-83
2023/07/15 12:30:17;;;;;;;17.67;16.93;;;41.00;34.10;;;;;;5010681;28;20457;-84